createdAt,value
2022-10-18T00:07:53.235Z,11.83
2022-10-18T00:19:53.281Z,11.82
2022-10-18T00:31:53.170Z,11.81
2022-10-18T00:43:53.278Z,11.80
2022-10-18T00:55:53.196Z,11.78
2022-10-18T01:07:53.284Z,11.77
2022-10-18T01:19:53.254Z,11.75
2022-10-18T01:31:55.340Z,11.74
2022-10-18T01:43:53.184Z,11.73
2022-10-18T01:55:53.445Z,11.72
2022-10-18T02:08:05.338Z,11.69
2022-10-18T02:19:53.200Z,11.69
2022-10-18T02:31:53.238Z,11.68
2022-10-18T02:43:53.167Z,11.67
2022-10-18T02:55:53.166Z,11.65
2022-10-18T03:07:53.241Z,11.64
2022-10-18T03:19:53.214Z,11.63
2022-10-18T03:31:53.287Z,11.61
2022-10-18T03:43:53.285Z,11.60
2022-10-18T03:55:53.263Z,11.58
2022-10-18T04:07:53.165Z,11.57
2022-10-18T04:19:53.165Z,11.56
2022-10-18T04:31:53.263Z,11.54
2022-10-18T04:43:53.266Z,11.54
2022-10-18T04:55:53.163Z,11.52
2022-10-18T05:07:53.252Z,11.51
2022-10-18T05:19:53.226Z,11.50
2022-10-18T05:31:53.173Z,11.47
2022-10-18T05:43:53.284Z,11.47
2022-10-18T05:55:53.262Z,11.45
2022-10-18T06:07:53.265Z,11.45
2022-10-18T06:19:53.174Z,11.44
2022-10-18T06:31:53.253Z,11.42
2022-10-18T06:43:53.160Z,11.41
2022-10-18T06:55:53.245Z,11.40
2022-10-18T07:07:56.349Z,11.39
2022-10-18T07:19:53.292Z,11.38
2022-10-18T07:31:53.169Z,11.37
2022-10-18T07:43:53.246Z,11.36
2022-10-18T07:55:53.225Z,11.36
2022-10-18T08:07:53.184Z,11.35
2022-10-18T08:20:05.011Z,11.35
2022-10-18T08:31:53.176Z,11.34
2022-10-18T08:43:53.163Z,11.36
2022-10-18T08:55:53.189Z,11.35
2022-10-18T09:07:53.167Z,11.36
2022-10-18T09:19:53.332Z,11.41
2022-10-18T09:31:53.275Z,11.43
2022-10-18T09:43:53.165Z,11.48
2022-10-18T09:55:53.278Z,11.51
2022-10-18T10:07:53.170Z,11.48
2022-10-18T10:19:53.289Z,11.47
2022-10-18T10:31:53.293Z,11.47
2022-10-18T10:43:53.167Z,11.50
2022-10-18T10:55:53.228Z,11.50
2022-10-18T11:07:53.427Z,11.53
2022-10-18T11:19:53.278Z,11.52
2022-10-18T11:31:53.167Z,11.65
2022-10-18T11:44:01.770Z,11.68
2022-10-18T11:55:53.167Z,11.72
2022-10-18T12:07:53.282Z,11.69
2022-10-18T12:19:53.268Z,11.69
2022-10-18T12:31:53.279Z,11.69
2022-10-18T12:43:53.254Z,11.69
2022-10-18T12:55:53.214Z,11.67
2022-10-18T13:07:53.279Z,11.67
2022-10-18T13:20:07.688Z,11.66
2022-10-18T13:31:53.174Z,11.66
2022-10-18T13:43:53.194Z,11.66
2022-10-18T13:55:55.835Z,11.65
2022-10-18T14:07:53.256Z,11.65
2022-10-18T14:19:53.224Z,11.64
2022-10-18T14:31:53.218Z,11.63
2022-10-18T14:43:53.286Z,11.62
2022-10-18T14:55:53.257Z,11.60
2022-10-18T15:07:53.231Z,11.60
2022-10-18T15:19:53.166Z,11.59
2022-10-18T15:31:53.288Z,11.58
2022-10-18T15:43:53.163Z,11.56
2022-10-18T15:55:53.241Z,11.55
2022-10-18T16:07:53.229Z,11.53
2022-10-18T16:19:53.395Z,11.53
2022-10-18T16:31:53.171Z,11.51
2022-10-18T16:43:53.181Z,11.50
2022-10-18T16:55:53.163Z,11.48
2022-10-18T17:07:53.169Z,11.47
2022-10-18T17:19:53.222Z,11.46
2022-10-18T17:31:53.241Z,11.44
2022-10-18T17:43:53.170Z,11.42
2022-10-18T17:55:53.165Z,11.41
2022-10-18T18:07:54.091Z,11.39
2022-10-18T18:19:53.185Z,11.39
2022-10-18T18:31:53.171Z,11.37
2022-10-18T18:43:53.261Z,11.35
2022-10-18T18:55:53.174Z,11.34
2022-10-18T19:07:53.282Z,11.33
2022-10-18T19:19:53.281Z,11.30
2022-10-18T19:31:53.262Z,11.30
2022-10-18T19:43:53.260Z,11.28
2022-10-18T19:55:53.283Z,11.27
2022-10-18T20:07:53.169Z,11.26
2022-10-18T20:19:53.167Z,11.24
2022-10-18T20:31:53.233Z,11.23
2022-10-18T20:43:53.283Z,11.20
2022-10-18T20:55:53.261Z,11.20
2022-10-18T21:07:53.316Z,11.18
2022-10-18T21:19:53.217Z,11.17
2022-10-18T21:31:53.326Z,11.16
2022-10-18T21:43:53.292Z,11.13
2022-10-18T21:55:53.169Z,11.13
2022-10-18T22:07:53.211Z,11.12
2022-10-18T22:19:53.279Z,11.10
2022-10-18T22:31:53.186Z,11.09
2022-10-18T22:43:53.173Z,11.08
2022-10-18T22:55:53.168Z,11.07
2022-10-18T23:07:53.168Z,11.06
2022-10-18T23:19:53.218Z,11.05
2022-10-18T23:31:53.187Z,11.04
2022-10-18T23:43:53.169Z,11.03
2022-10-18T23:55:53.162Z,11.02
